createdAt,value
2018-07-03T00:01:57.243Z,999.90
2018-07-03T00:04:41.719Z,999.90
2018-07-03T00:07:22.624Z,954.83
2018-07-03T00:10:00.344Z,807.83
2018-07-03T00:12:43.900Z,563.90
2018-07-03T00:15:23.987Z,383.50
2018-07-03T00:18:03.543Z,349.90
2018-07-03T00:20:44.519Z,343.27
2018-07-03T00:23:31.608Z,519.40
2018-07-03T00:26:19.483Z,341.97
2018-07-03T00:28:59.622Z,495.77
2018-07-03T00:31:40.297Z,523.33
2018-07-03T00:34:20.680Z,863.57
2018-07-03T00:37:01.874Z,697.60
2018-07-03T00:39:40.376Z,999.90
2018-07-03T00:42:20.535Z,999.90
2018-07-03T00:45:01.360Z,833.70
2018-07-03T00:47:45.962Z,616.00
2018-07-03T00:50:24.977Z,584.70
2018-07-03T00:53:03.881Z,699.73
2018-07-03T00:55:43.459Z,509.40
2018-07-03T00:58:22.940Z,398.27
2018-07-03T01:01:31.485Z,734.93
2018-07-03T01:04:15.343Z,877.80
2018-07-03T01:06:54.458Z,999.90
2018-07-03T01:09:33.863Z,999.90
2018-07-03T01:12:16.781Z,999.90
2018-07-03T01:15:04.179Z,999.90
2018-07-03T01:17:42.098Z,999.90
2018-07-03T01:20:23.118Z,999.90
2018-07-03T01:23:02.717Z,997.57
2018-07-03T01:25:42.717Z,999.90
2018-07-03T01:28:23.480Z,999.90
2018-07-03T01:31:09.257Z,747.17
2018-07-03T01:33:49.544Z,969.97
2018-07-03T01:36:29.563Z,616.40
2018-07-03T01:39:12.999Z,533.40
2018-07-03T01:41:55.581Z,372.60
2018-07-03T01:44:37.724Z,495.70
2018-07-03T01:47:28.042Z,327.53
2018-07-03T01:50:06.658Z,331.60
2018-07-03T01:52:47.584Z,298.70
2018-07-03T01:55:26.559Z,301.20
2018-07-03T01:58:07.620Z,465.67
2018-07-03T02:00:47.837Z,409.57
2018-07-03T02:03:39.476Z,510.67
2018-07-03T02:06:18.365Z,438.30
2018-07-03T02:08:57.795Z,406.97
2018-07-03T02:11:39.540Z,447.83
2018-07-03T02:14:21.199Z,455.90
2018-07-03T02:17:00.537Z,584.47
2018-07-03T02:19:51.124Z,644.73
2018-07-03T02:22:29.458Z,609.37
2018-07-03T02:25:10.166Z,576.30
2018-07-03T02:27:49.375Z,618.97
2018-07-03T02:30:29.838Z,598.53
2018-07-03T02:33:18.556Z,531.27
2018-07-03T02:35:56.439Z,585.67
2018-07-03T02:38:35.623Z,565.53
2018-07-03T02:41:14.386Z,554.50
2018-07-03T02:43:53.380Z,535.90
2018-07-03T02:46:34.220Z,471.17
2018-07-03T02:49:15.343Z,445.90
2018-07-03T02:51:53.723Z,467.13
2018-07-03T02:54:33.377Z,504.97
2018-07-03T02:57:12.737Z,508.17
2018-07-03T02:59:51.965Z,533.50
2018-07-03T03:02:32.116Z,451.07
2018-07-03T03:05:13.122Z,527.80
2018-07-03T03:08:05.210Z,593.83
2018-07-03T03:10:46.941Z,587.87
2018-07-03T03:13:29.542Z,575.17
2018-07-03T03:16:09.081Z,505.50
2018-07-03T03:18:50.598Z,619.67
2018-07-03T03:21:32.618Z,567.30
2018-07-03T03:24:18.558Z,541.50
2018-07-03T03:26:58.181Z,495.77
2018-07-03T03:29:38.459Z,431.80
2018-07-03T03:32:19.000Z,558.67
2018-07-03T03:34:58.041Z,546.37
2018-07-03T03:37:42.962Z,548.30
2018-07-03T03:40:26.026Z,547.47
2018-07-03T03:43:14.695Z,639.00
2018-07-03T03:45:52.444Z,747.23
2018-07-03T03:48:40.323Z,696.30
2018-07-03T03:51:20.636Z,754.53
2018-07-03T03:54:01.983Z,699.50
2018-07-03T03:56:52.243Z,738.27
2018-07-03T03:59:30.959Z,710.13
2018-07-03T04:02:11.084Z,521.13
2018-07-03T04:04:51.441Z,715.77
2018-07-03T04:07:32.397Z,696.07
2018-07-03T04:10:20.262Z,829.00
2018-07-03T04:13:03.061Z,833.50
2018-07-03T04:15:44.619Z,765.53
2018-07-03T04:18:32.919Z,823.13
2018-07-03T04:21:14.700Z,873.63
2018-07-03T04:24:03.238Z,911.33
2018-07-03T04:26:41.836Z,848.00
2018-07-03T04:29:21.278Z,861.83
2018-07-03T04:32:00.188Z,889.23
2018-07-03T04:34:44.506Z,905.77
2018-07-03T04:37:28.978Z,856.20
2018-07-03T04:40:20.956Z,829.27
2018-07-03T04:43:00.518Z,846.00
2018-07-03T04:45:38.885Z,747.40
2018-07-03T04:48:21.038Z,718.13
2018-07-03T04:51:03.762Z,730.87
2018-07-03T04:53:48.605Z,697.47
2018-07-03T04:56:34.215Z,650.17
2018-07-03T04:59:14.202Z,734.53
2018-07-03T05:01:52.464Z,570.90
2018-07-03T05:04:35.474Z,525.63
2018-07-03T05:07:21.605Z,417.87
2018-07-03T05:10:00.885Z,366.67
2018-07-03T05:12:49.917Z,294.20
2018-07-03T05:15:32.927Z,348.67
2018-07-03T05:18:13.162Z,355.27
2018-07-03T05:21:02.998Z,443.33
2018-07-03T05:23:43.561Z,408.73
2018-07-03T05:26:27.796Z,290.67
2018-07-03T05:29:10.018Z,232.03
2018-07-03T05:31:49.341Z,294.10
2018-07-03T05:34:33.135Z,258.50
2018-07-03T05:37:13.096Z,246.10
2018-07-03T05:39:57.320Z,301.37
2018-07-03T05:42:45.067Z,425.17
2018-07-03T05:45:23.099Z,757.97
2018-07-03T05:48:05.136Z,999.90
2018-07-03T05:50:43.041Z,999.90
2018-07-03T05:53:25.761Z,955.23
2018-07-03T05:56:11.853Z,916.60
2018-07-03T05:59:01.815Z,905.60
2018-07-03T06:01:42.182Z,984.37
2018-07-03T06:04:27.119Z,999.90
2018-07-03T06:07:11.941Z,999.90
2018-07-03T06:09:50.942Z,999.90
2018-07-03T06:12:39.743Z,999.90
2018-07-03T06:15:19.963Z,999.90
2018-07-03T06:17:57.284Z,999.90
2018-07-03T06:20:39.181Z,999.90
2018-07-03T06:23:24.125Z,999.90
2018-07-03T06:26:07.099Z,999.90
2018-07-03T06:28:48.155Z,999.90
2018-07-03T06:31:30.000Z,999.90
2018-07-03T06:34:17.682Z,999.90
2018-07-03T06:36:55.683Z,582.93
2018-07-03T06:39:39.822Z,191.03
2018-07-03T06:42:30.502Z,93.47
2018-07-03T06:45:08.623Z,71.70
2018-07-03T06:47:48.299Z,92.03
2018-07-03T06:50:28.964Z,306.23
2018-07-03T06:53:15.344Z,444.43
2018-07-03T06:56:03.840Z,112.90
2018-07-03T06:58:45.023Z,58.97
2018-07-03T07:01:22.840Z,158.07
2018-07-03T07:04:04.521Z,187.30
2018-07-03T07:06:43.481Z,358.53
2018-07-03T07:09:22.096Z,237.40
2018-07-03T07:12:06.523Z,69.97
2018-07-03T07:14:46.448Z,132.83
2018-07-03T07:17:26.465Z,29.53
2018-07-03T07:20:13.321Z,31.45
2018-07-03T07:22:51.541Z,34.78
2018-07-03T07:25:36.437Z,37.63
2018-07-03T07:28:17.347Z,42.08
2018-07-03T07:31:02.225Z,53.80
2018-07-03T07:33:44.698Z,51.42
2018-07-03T07:36:31.966Z,42.43
2018-07-03T07:39:20.058Z,72.58
2018-07-03T07:42:00.560Z,112.25
2018-07-03T07:44:44.625Z,152.87
2018-07-03T07:47:27.426Z,117.65
2018-07-03T07:50:10.425Z,77.70
2018-07-03T07:52:50.083Z,78.07
2018-07-03T07:55:42.297Z,69.80
2018-07-03T07:58:27.201Z,57.90
2018-07-03T08:01:12.758Z,54.50
2018-07-03T08:03:54.717Z,50.75
2018-07-03T08:06:39.805Z,47.98
2018-07-03T08:09:22.847Z,49.27
2018-07-03T08:12:05.923Z,48.17
2018-07-03T08:14:51.558Z,52.35
2018-07-03T08:17:41.299Z,54.33
2018-07-03T08:20:21.417Z,53.35
2018-07-03T08:23:00.363Z,53.10
2018-07-03T22:34:01.334Z,999.90
2018-07-03T22:36:33.065Z,999.90
2018-07-03T22:39:20.540Z,999.90
2018-07-03T22:42:07.722Z,999.90
2018-07-03T22:44:50.085Z,999.90
2018-07-03T22:47:33.500Z,999.90
2018-07-03T22:50:20.058Z,999.90
2018-07-03T22:52:58.982Z,999.90
2018-07-03T22:55:46.864Z,999.90
2018-07-03T22:58:28.130Z,999.90
2018-07-03T23:01:11.321Z,999.90
2018-07-03T23:03:52.875Z,999.90
2018-07-03T23:06:41.569Z,999.90
2018-07-03T23:09:35.863Z,999.90
2018-07-03T23:12:27.199Z,999.90
2018-07-03T23:15:06.598Z,999.90
2018-07-03T23:17:49.423Z,999.90
2018-07-03T23:20:31.514Z,999.90
2018-07-03T23:23:11.237Z,999.90
2018-07-03T23:25:52.559Z,999.90
2018-07-03T23:28:31.641Z,999.90
2018-07-03T23:31:14.362Z,999.90
2018-07-03T23:33:55.514Z,999.90
2018-07-03T23:36:36.615Z,999.90
2018-07-03T23:39:20.274Z,999.90
2018-07-03T23:42:06.058Z,999.90
2018-07-03T23:44:48.062Z,999.90
2018-07-03T23:47:41.384Z,999.90
2018-07-03T23:50:32.481Z,999.90
2018-07-03T23:53:24.459Z,999.90
2018-07-03T23:56:15.461Z,814.27
2018-07-03T23:59:09.723Z,746.13
